createdAt,value
2018-09-06T00:01:47.553Z,20.70
2018-09-06T00:04:18.434Z,20.70
2018-09-06T00:06:49.292Z,20.60
2018-09-06T00:09:20.258Z,20.60
2018-09-06T00:11:51.189Z,20.50
2018-09-06T00:14:22.050Z,20.50
2018-09-06T00:16:53.031Z,20.50
2018-09-06T00:19:24.112Z,20.50
2018-09-06T00:21:55.061Z,20.40
2018-09-06T00:24:25.967Z,20.40
2018-09-06T00:26:57.195Z,20.50
2018-09-06T00:29:28.050Z,20.40
2018-09-06T00:31:58.927Z,20.50
2018-09-06T00:34:29.746Z,20.40
2018-09-06T00:37:00.601Z,20.40
2018-09-06T00:39:31.433Z,20.40
2018-09-06T00:42:02.290Z,20.30
2018-09-06T00:44:33.509Z,20.30
2018-09-06T00:47:04.433Z,20.30
2018-09-06T00:49:35.259Z,20.20
2018-09-06T00:52:06.180Z,20.20
2018-09-06T00:54:37.106Z,20.20
2018-09-06T00:57:08.256Z,20.10
2018-09-06T00:59:39.131Z,20.10
2018-09-06T01:02:10.354Z,20.10
2018-09-06T01:04:41.383Z,20.10
2018-09-06T01:07:12.282Z,20.00
2018-09-06T01:09:43.392Z,20.10
2018-09-06T01:12:15.726Z,20.10
2018-09-06T01:14:46.563Z,20.10
2018-09-06T01:17:17.622Z,20.10
2018-09-06T01:19:48.490Z,20.10
2018-09-06T01:22:19.478Z,20.10
2018-09-06T01:24:50.399Z,20.10
2018-09-06T01:27:21.277Z,20.20
2018-09-06T01:29:52.794Z,20.20
2018-09-06T01:32:23.716Z,20.20
2018-09-06T01:34:54.646Z,20.30
2018-09-06T01:37:25.746Z,20.30
2018-09-06T01:39:56.729Z,20.30
2018-09-06T01:42:27.668Z,20.30
2018-09-06T01:44:58.732Z,20.30
2018-09-06T01:47:29.618Z,20.20
2018-09-06T01:50:00.461Z,20.10
2018-09-06T01:52:31.424Z,20.10
2018-09-06T01:55:02.325Z,20.10
2018-09-06T01:57:33.350Z,20.10
2018-09-06T02:00:04.482Z,20.20
2018-09-06T02:02:35.394Z,20.30
2018-09-06T02:05:06.516Z,20.20
2018-09-06T02:07:37.378Z,20.10
2018-09-06T02:10:08.348Z,20.00
2018-09-06T02:12:39.422Z,20.10
2018-09-06T02:15:10.380Z,20.00
2018-09-06T02:17:41.303Z,20.00
2018-09-06T02:20:12.267Z,20.00
2018-09-06T02:22:43.991Z,19.90
2018-09-06T02:25:14.921Z,19.80
2018-09-06T02:27:45.864Z,19.80
2018-09-06T02:30:16.833Z,19.70
2018-09-06T02:32:47.727Z,19.70
2018-09-06T02:35:18.560Z,19.70
2018-09-06T02:37:49.526Z,19.70
2018-09-06T02:40:25.582Z,19.70
2018-09-06T02:42:56.652Z,19.70
2018-09-06T02:45:27.865Z,19.70
2018-09-06T02:47:58.776Z,19.70
2018-09-06T02:50:35.497Z,19.60
2018-09-06T02:53:06.441Z,19.60
2018-09-06T02:55:37.408Z,19.60
2018-09-06T02:58:08.353Z,19.60
2018-09-06T03:00:39.640Z,19.60
2018-09-06T03:03:10.572Z,19.60
2018-09-06T03:05:41.543Z,19.60
2018-09-06T03:08:12.493Z,19.40
2018-09-06T03:10:44.885Z,19.30
2018-09-06T03:13:15.754Z,19.20
2018-09-06T03:15:46.710Z,19.10
2018-09-06T03:18:17.676Z,19.10
2018-09-06T03:20:48.544Z,19.10
2018-09-06T03:23:19.519Z,19.10
2018-09-06T03:25:50.478Z,19.10
2018-09-06T03:28:21.345Z,19.10
2018-09-06T03:30:52.414Z,19.10
2018-09-06T03:33:23.378Z,19.10
2018-09-06T03:35:54.344Z,19.00
2018-09-06T03:38:26.187Z,19.00
2018-09-06T03:40:57.437Z,19.00
2018-09-06T03:43:28.383Z,18.90
2018-09-06T03:45:59.405Z,18.90
2018-09-06T03:48:30.398Z,19.00
2018-09-06T03:51:01.265Z,19.00
2018-09-06T03:53:32.167Z,18.90
2018-09-06T03:56:03.073Z,18.80
2018-09-06T03:58:34.005Z,18.80
2018-09-06T04:01:04.938Z,18.80
2018-09-06T04:03:35.983Z,18.70
2018-09-06T04:06:07.069Z,18.60
2018-09-06T04:08:37.974Z,18.50
2018-09-06T04:11:08.886Z,18.50
2018-09-06T04:13:39.893Z,18.60
2018-09-06T04:16:10.761Z,18.60
2018-09-06T04:18:41.894Z,18.70
2018-09-06T04:21:12.745Z,18.60
2018-09-06T04:23:43.736Z,18.60
2018-09-06T04:26:14.585Z,18.60
2018-09-06T04:28:46.484Z,18.70
2018-09-06T04:31:17.422Z,18.70
2018-09-06T04:33:48.585Z,18.70
2018-09-06T04:36:19.525Z,18.90
2018-09-06T04:38:50.365Z,18.90
2018-09-06T04:41:21.281Z,18.90
2018-09-06T04:43:52.401Z,19.10
2018-09-06T04:46:23.305Z,19.20
2018-09-06T04:48:54.225Z,19.30
2018-09-06T04:51:25.086Z,19.50
2018-09-06T04:53:56.044Z,19.70
2018-09-06T04:56:28.274Z,19.80
2018-09-06T04:58:59.709Z,20.00
2018-09-06T05:01:30.732Z,20.00
2018-09-06T05:04:01.768Z,20.10
2018-09-06T05:06:32.789Z,20.30
2018-09-06T05:09:06.243Z,20.50
2018-09-06T05:11:37.701Z,20.60
2018-09-06T05:14:08.727Z,20.90
2018-09-06T05:16:39.739Z,21.20
2018-09-06T05:19:10.646Z,21.50
2018-09-06T05:21:41.668Z,21.60
2018-09-06T05:24:12.505Z,21.70
2018-09-06T05:26:43.389Z,22.00
2018-09-06T05:29:14.326Z,22.20
2018-09-06T05:31:45.272Z,22.60
2018-09-06T05:34:16.378Z,22.90
2018-09-06T05:36:47.318Z,23.20
2018-09-06T05:39:18.343Z,23.50
2018-09-06T05:41:49.253Z,23.80
2018-09-06T05:44:20.268Z,24.10
2018-09-06T05:46:51.315Z,24.30
2018-09-06T05:49:22.269Z,24.50
2018-09-06T05:51:53.240Z,24.80
2018-09-06T05:54:24.223Z,25.00
2018-09-06T05:56:55.149Z,25.10
2018-09-06T05:59:26.120Z,25.30
2018-09-06T06:01:57.064Z,25.50
2018-09-06T06:04:28.047Z,25.70
2018-09-06T06:06:59.017Z,25.90
2018-09-06T06:09:29.944Z,26.10
2018-09-06T06:12:00.993Z,26.40
2018-09-06T06:14:32.010Z,26.80
2018-09-06T06:17:02.827Z,26.90
2018-09-06T06:19:33.667Z,26.80
2018-09-06T06:22:04.670Z,27.10
2018-09-06T06:24:35.598Z,27.30
2018-09-06T06:27:06.524Z,27.30
2018-09-06T06:29:38.223Z,27.50
2018-09-06T06:32:09.168Z,27.90
2018-09-06T06:34:40.281Z,28.30
2018-09-06T06:37:11.213Z,28.70
2018-09-06T06:39:42.309Z,29.00
2018-09-06T06:42:13.275Z,29.10
2018-09-06T06:44:44.352Z,29.40
2018-09-06T06:47:15.192Z,29.80
2018-09-06T06:49:46.776Z,30.20
2018-09-06T06:52:17.720Z,30.70
2018-09-06T06:54:48.872Z,31.30
2018-09-06T06:57:19.762Z,31.50
2018-09-06T06:59:50.703Z,31.50
2018-09-06T07:02:21.668Z,30.90
2018-09-06T07:04:52.587Z,31.00
2018-09-06T07:07:23.488Z,31.50
2018-09-06T07:09:54.350Z,31.40
2018-09-06T07:12:25.354Z,31.20
2018-09-06T07:14:56.402Z,30.80
2018-09-06T07:17:27.708Z,30.90
2018-09-06T07:19:58.617Z,30.70
2018-09-06T07:22:29.492Z,30.90
2018-09-06T07:25:00.714Z,30.80
2018-09-06T07:27:31.599Z,30.70
2018-09-06T07:30:02.626Z,30.70
2018-09-06T07:32:33.575Z,30.60
2018-09-06T07:35:04.528Z,31.20
2018-09-06T07:37:35.643Z,30.80
2018-09-06T07:40:07.183Z,31.20
2018-09-06T07:42:38.127Z,31.60
2018-09-06T07:45:09.136Z,31.40
2018-09-06T07:47:40.081Z,32.00
2018-09-06T07:50:11.110Z,32.40
2018-09-06T07:52:42.044Z,32.10
2018-09-06T07:55:12.968Z,31.70
2018-09-06T07:57:43.930Z,31.60
2018-09-06T08:00:14.911Z,31.70
2018-09-06T08:02:45.952Z,31.80
2018-09-06T08:05:16.822Z,32.30
2018-09-06T08:07:47.709Z,32.70
2018-09-06T08:10:18.740Z,32.90
2018-09-06T08:12:49.652Z,33.00
2018-09-06T08:15:20.531Z,33.20
2018-09-06T08:17:51.469Z,33.30
2018-09-06T08:20:22.404Z,33.40
2018-09-06T08:22:53.212Z,33.90
2018-09-06T08:25:24.109Z,34.10
2018-09-06T08:27:55.068Z,34.50
2018-09-06T08:30:26.012Z,35.00
2018-09-06T08:32:56.890Z,35.40
2018-09-06T08:35:27.850Z,35.50
2018-09-06T08:37:58.879Z,36.00
2018-09-06T08:40:29.757Z,36.40
2018-09-06T08:43:00.852Z,36.60
2018-09-06T08:45:31.945Z,36.80
2018-09-06T08:48:02.806Z,36.50
2018-09-06T08:50:33.704Z,36.60
2018-09-06T08:53:04.662Z,37.00
2018-09-06T08:55:35.855Z,37.20
2018-09-06T08:58:06.856Z,37.60
2018-09-06T09:00:40.250Z,37.80
2018-09-06T09:03:11.425Z,37.80
2018-09-06T09:05:42.394Z,37.60
2018-09-06T09:08:13.354Z,37.50
2018-09-06T09:10:44.470Z,37.10
2018-09-06T09:13:15.444Z,37.30
2018-09-06T09:15:46.517Z,36.90
2018-09-06T09:18:17.517Z,36.70
2018-09-06T09:20:48.493Z,36.90
2018-09-06T09:23:20.116Z,37.10
2018-09-06T09:25:51.075Z,37.00
2018-09-06T09:28:22.051Z,37.30
2018-09-06T09:30:53.040Z,37.60
2018-09-06T09:33:24.062Z,37.80
2018-09-06T09:35:55.217Z,37.60
2018-09-06T09:38:26.122Z,37.30
2018-09-06T09:40:57.208Z,37.60
2018-09-06T09:43:28.236Z,37.70
2018-09-06T09:48:29.258Z,37.70
2018-09-06T09:51:00.253Z,38.00
2018-09-06T09:53:31.031Z,37.90
2018-09-06T09:56:02.067Z,37.70
2018-09-06T09:58:33.027Z,37.50
2018-09-06T10:01:04.051Z,37.10
2018-09-06T10:03:40.134Z,37.00
2018-09-06T10:06:16.001Z,37.00
2018-09-06T10:08:52.045Z,36.70
2018-09-06T10:11:23.027Z,36.80
2018-09-06T10:13:54.174Z,37.00
2018-09-06T10:16:25.236Z,37.00
2018-09-06T10:18:56.218Z,36.50
2018-09-06T10:21:27.168Z,36.80
2018-09-06T10:23:58.274Z,36.80
2018-09-06T10:26:29.303Z,37.00
2018-09-06T10:29:00.111Z,37.30
2018-09-06T10:31:31.133Z,37.20
2018-09-06T10:34:02.158Z,37.00
2018-09-06T10:36:33.491Z,37.00
2018-09-06T10:39:05.766Z,36.40
2018-09-06T10:41:36.867Z,36.70
2018-09-06T10:44:07.968Z,36.70
2018-09-06T10:46:39.185Z,36.80
2018-09-06T10:49:10.142Z,36.30
2018-09-06T10:51:41.128Z,36.10
2018-09-06T10:54:12.105Z,36.10
2018-09-06T10:56:43.169Z,36.30
2018-09-06T10:59:14.249Z,36.60
2018-09-06T11:01:45.154Z,36.60
2018-09-06T11:04:16.133Z,36.40
2018-09-06T11:06:47.313Z,35.90
2018-09-06T11:09:18.307Z,36.10
2018-09-06T11:11:49.360Z,35.90
2018-09-06T11:14:20.211Z,35.10
2018-09-06T11:16:51.255Z,35.10
2018-09-06T11:19:22.168Z,35.00
2018-09-06T11:21:53.389Z,34.70
2018-09-06T11:24:24.657Z,34.60
2018-09-06T11:26:55.619Z,34.50
2018-09-06T11:29:26.803Z,34.40
2018-09-06T11:31:58.697Z,34.70
2018-09-06T11:34:29.780Z,34.90
2018-09-06T11:37:00.759Z,34.80
2018-09-06T11:39:32.003Z,34.60
2018-09-06T11:42:03.101Z,34.40
2018-09-06T11:44:34.136Z,34.10
2018-09-06T11:47:05.745Z,33.60
2018-09-06T11:49:36.712Z,33.20
2018-09-06T11:52:08.171Z,33.00
2018-09-06T11:54:39.120Z,33.30
2018-09-06T11:57:10.321Z,33.40
2018-09-06T11:59:41.429Z,33.70
2018-09-06T12:02:12.534Z,33.80
2018-09-06T12:04:43.567Z,33.70
2018-09-06T12:07:14.634Z,33.60
2018-09-06T12:09:45.694Z,32.80
2018-09-06T12:12:16.612Z,32.50
2018-09-06T12:14:47.637Z,32.30
2018-09-06T12:17:18.532Z,32.30
2018-09-06T12:19:49.818Z,32.00
2018-09-06T12:22:20.774Z,31.80
2018-09-06T12:24:51.987Z,31.30
2018-09-06T12:27:22.941Z,31.30
2018-09-06T12:29:53.993Z,31.30
2018-09-06T12:32:24.947Z,31.30
2018-09-06T12:34:55.915Z,31.20
2018-09-06T12:37:26.836Z,31.10
2018-09-06T12:39:57.918Z,31.00
2018-09-06T12:42:29.009Z,30.90
2018-09-06T12:44:59.962Z,30.60
2018-09-06T12:47:31.304Z,30.40
2018-09-06T12:50:02.374Z,30.40
2018-09-06T12:52:34.076Z,30.40
2018-09-06T12:55:06.004Z,30.30
2018-09-06T12:57:36.918Z,30.10
2018-09-06T13:00:08.433Z,30.30
2018-09-06T13:02:39.454Z,30.30
2018-09-06T13:05:10.390Z,30.40
2018-09-06T13:07:41.649Z,30.10
2018-09-06T13:10:12.753Z,29.50
2018-09-06T13:12:43.764Z,29.30
2018-09-06T13:15:14.702Z,29.50
2018-09-06T13:17:45.728Z,29.60
2018-09-06T13:20:16.649Z,29.50
2018-09-06T13:22:47.668Z,29.10
2018-09-06T13:25:18.670Z,28.70
2018-09-06T13:27:49.622Z,28.60
2018-09-06T13:30:20.551Z,28.80
2018-09-06T13:32:51.455Z,28.80
2018-09-06T13:35:22.393Z,28.60
2018-09-06T13:37:53.292Z,28.50
2018-09-06T13:40:24.449Z,28.50
2018-09-06T13:42:55.409Z,28.60
2018-09-06T13:45:26.322Z,28.80
2018-09-06T13:47:57.214Z,28.80
2018-09-06T13:50:28.085Z,29.00
2018-09-06T13:52:59.008Z,28.90
2018-09-06T13:55:29.865Z,28.80
2018-09-06T13:58:01.009Z,28.70
2018-09-06T14:00:32.036Z,28.70
2018-09-06T14:03:02.935Z,28.60
2018-09-06T14:05:33.985Z,28.70
2018-09-06T14:08:05.082Z,28.80
2018-09-06T14:10:36.044Z,28.60
2018-09-06T14:13:07.091Z,28.30
2018-09-06T14:15:38.043Z,28.40
2018-09-06T14:18:08.936Z,28.40
2018-09-06T14:20:39.826Z,28.40
2018-09-06T14:23:10.746Z,28.20
2018-09-06T14:25:41.721Z,28.00
2018-09-06T14:28:12.684Z,27.90
2018-09-06T14:30:43.702Z,27.60
2018-09-06T14:33:14.767Z,27.70
2018-09-06T14:35:46.085Z,27.70
2018-09-06T14:38:17.131Z,27.60
2018-09-06T14:40:48.144Z,27.70
2018-09-06T14:43:19.201Z,27.80
2018-09-06T14:45:50.689Z,27.80
2018-09-06T14:48:21.660Z,27.80
2018-09-06T14:50:52.701Z,27.70
2018-09-06T14:53:23.619Z,27.70
2018-09-06T14:55:54.623Z,27.80
2018-09-06T14:58:25.588Z,27.90
2018-09-06T15:00:56.594Z,27.80
2018-09-06T15:03:27.537Z,27.80
2018-09-06T15:05:59.423Z,27.70
2018-09-06T15:08:30.405Z,27.80
2018-09-06T15:11:01.365Z,27.80
2018-09-06T15:13:32.522Z,27.50
2018-09-06T15:16:03.451Z,27.20
2018-09-06T15:18:34.427Z,27.20
2018-09-06T15:21:05.395Z,27.20
2018-09-06T15:23:36.467Z,27.20
2018-09-06T15:26:07.419Z,27.30
2018-09-06T15:28:38.452Z,27.30
2018-09-06T15:31:09.412Z,27.30
2018-09-06T15:33:40.335Z,27.30
2018-09-06T15:36:11.368Z,27.40
2018-09-06T15:38:42.468Z,27.50
2018-09-06T15:41:13.765Z,27.50
2018-09-06T15:43:44.858Z,27.40
2018-09-06T15:46:16.201Z,27.40
2018-09-06T15:48:47.316Z,27.30
2018-09-06T15:51:18.403Z,27.30
2018-09-06T15:53:49.405Z,27.30
2018-09-06T15:56:20.322Z,27.20
2018-09-06T15:58:52.286Z,27.20
2018-09-06T16:01:23.276Z,27.10
2018-09-06T16:03:54.440Z,27.00
2018-09-06T16:06:25.353Z,27.00
2018-09-06T16:08:56.364Z,27.10
2018-09-06T16:11:27.699Z,27.00
2018-09-06T16:13:58.718Z,27.00
2018-09-06T16:16:29.920Z,26.90
2018-09-06T16:19:01.017Z,26.80
2018-09-06T16:21:32.135Z,26.80
2018-09-06T16:24:03.071Z,26.70
2018-09-06T16:26:34.319Z,26.60
2018-09-06T16:29:05.699Z,26.50
2018-09-06T16:31:36.656Z,26.40
2018-09-06T16:34:08.098Z,26.30
2018-09-06T16:36:39.302Z,26.20
2018-09-06T16:39:11.686Z,26.10
2018-09-06T16:41:42.916Z,26.10
2018-09-06T16:44:13.810Z,26.10
2018-09-06T16:46:44.846Z,26.00
2018-09-06T16:49:15.958Z,25.90
2018-09-06T16:51:47.029Z,25.70
2018-09-06T16:54:18.127Z,25.80
2018-09-06T16:56:49.014Z,25.70
2018-09-06T16:59:19.958Z,25.50
2018-09-06T17:01:51.134Z,25.50
2018-09-06T17:04:22.382Z,25.50
2018-09-06T17:06:53.364Z,25.30
2018-09-06T17:09:24.366Z,25.10
2018-09-06T17:11:55.533Z,25.00
2018-09-06T17:14:26.547Z,24.80
2018-09-06T17:16:57.528Z,24.70
2018-09-06T17:19:28.860Z,24.50
2018-09-06T17:22:00.848Z,24.50
2018-09-06T17:24:31.930Z,24.40
2018-09-06T17:27:02.982Z,24.40
2018-09-06T17:29:34.600Z,24.30
2018-09-06T17:32:05.595Z,24.20
2018-09-06T17:34:36.754Z,24.30
2018-09-06T17:37:07.824Z,24.40
2018-09-06T17:39:39.531Z,24.50
2018-09-06T17:42:10.530Z,24.30
2018-09-06T17:44:41.715Z,24.10
2018-09-06T17:47:12.910Z,24.00
2018-09-06T17:49:43.988Z,23.80
2018-09-06T17:52:15.106Z,23.70
2018-09-06T17:54:46.140Z,23.70
2018-09-06T17:57:17.195Z,23.70
2018-09-06T17:59:48.189Z,23.80
2018-09-06T18:02:19.398Z,23.90
2018-09-06T18:04:50.410Z,24.00
2018-09-06T18:07:21.646Z,24.20
2018-09-06T18:09:52.761Z,24.00
2018-09-06T18:12:24.281Z,23.60
2018-09-06T18:14:55.816Z,23.50
2018-09-06T18:17:27.118Z,23.40
2018-09-06T18:19:59.015Z,23.40
2018-09-06T18:22:30.979Z,23.40
2018-09-06T18:25:04.617Z,23.40
2018-09-06T18:27:35.838Z,23.40
2018-09-06T18:30:07.717Z,23.50
2018-09-06T18:32:39.033Z,23.40
2018-09-06T18:35:11.087Z,23.30
2018-09-06T18:37:42.260Z,23.30
2018-09-06T18:40:13.721Z,23.20
2018-09-06T18:42:45.000Z,23.30
2018-09-06T18:45:16.031Z,23.30
2018-09-06T18:47:47.180Z,23.40
2018-09-06T18:50:18.385Z,23.20
2018-09-06T18:52:49.364Z,23.10
2018-09-06T18:55:20.441Z,23.10
2018-09-06T18:57:51.633Z,23.10
2018-09-06T19:00:22.691Z,23.00
2018-09-06T19:02:53.773Z,22.70
2018-09-06T19:05:24.994Z,22.60
2018-09-06T19:07:56.107Z,22.50
2018-09-06T19:10:27.127Z,22.50
2018-09-06T19:12:58.823Z,22.70
2018-09-06T19:15:29.795Z,22.80
2018-09-06T19:18:01.000Z,22.80
2018-09-06T19:20:32.981Z,22.80
2018-09-06T19:23:04.209Z,22.60
2018-09-06T19:25:35.720Z,22.50
2018-09-06T19:28:07.086Z,22.40
2018-09-06T19:30:38.193Z,22.50
2018-09-06T19:33:09.760Z,22.60
2018-09-06T19:35:40.986Z,22.60
2018-09-06T19:38:12.112Z,22.60
2018-09-06T19:40:43.536Z,22.60
2018-09-06T19:43:15.641Z,22.60
2018-09-06T19:45:52.966Z,22.70
2018-09-06T19:48:27.995Z,22.70
2018-09-06T19:50:59.557Z,22.50
2018-09-06T19:53:30.686Z,22.50
2018-09-06T19:56:01.686Z,22.40
2018-09-06T19:58:33.280Z,22.50
2018-09-06T20:01:04.700Z,22.40
2018-09-06T20:03:35.778Z,22.40
2018-09-06T20:06:07.265Z,22.40
2018-09-06T20:08:39.784Z,22.40
2018-09-06T20:11:11.933Z,22.30
2018-09-06T20:13:42.980Z,22.10
2018-09-06T20:16:15.757Z,22.00
2018-09-06T20:18:47.499Z,21.90
2018-09-06T20:21:18.626Z,21.70
2018-09-06T20:23:49.989Z,21.60
2018-09-06T20:26:21.049Z,21.50
2018-09-06T20:28:52.472Z,21.50
2018-09-06T20:31:23.727Z,21.60
2018-09-06T20:33:55.342Z,21.60
2018-09-06T20:36:26.481Z,21.50
2018-09-06T20:38:57.811Z,21.50
2018-09-06T20:41:28.718Z,21.70
2018-09-06T20:44:00.717Z,21.50
2018-09-06T20:46:31.810Z,21.40
2018-09-06T20:49:02.955Z,21.50
2018-09-06T20:51:35.271Z,21.40
2018-09-06T20:54:06.366Z,21.10
2018-09-06T20:56:37.654Z,21.00
2018-09-06T20:59:08.632Z,21.00
2018-09-06T21:01:39.972Z,21.00
2018-09-06T21:04:11.081Z,20.90
2018-09-06T21:06:41.956Z,20.90
2018-09-06T21:09:13.052Z,20.80
2018-09-06T21:11:44.184Z,20.80
2018-09-06T21:14:15.185Z,20.80
2018-09-06T21:16:46.057Z,20.80
2018-09-06T21:19:16.986Z,20.80
2018-09-06T21:21:48.225Z,20.70
2018-09-06T21:24:19.454Z,20.70
2018-09-06T21:26:50.416Z,20.60
2018-09-06T21:29:21.428Z,20.60
2018-09-06T21:31:52.644Z,20.60
2018-09-06T21:34:23.722Z,20.60
2018-09-06T21:36:54.978Z,20.60
2018-09-06T21:39:25.929Z,20.60
2018-09-06T21:41:56.876Z,20.60
2018-09-06T21:44:27.864Z,20.50
2018-09-06T21:46:58.828Z,20.30
2018-09-06T21:49:29.710Z,20.10
2018-09-06T21:52:00.605Z,20.20
2018-09-06T21:54:31.652Z,20.20
2018-09-06T21:57:02.612Z,20.20
2018-09-06T21:59:33.545Z,20.10
2018-09-06T22:02:04.520Z,20.00
2018-09-06T22:04:35.532Z,20.10
2018-09-06T22:07:06.425Z,20.00
2018-09-06T22:09:37.385Z,19.90
2018-09-06T22:12:12.292Z,20.00
2018-09-06T22:14:43.259Z,20.00
2018-09-06T22:17:14.156Z,20.10
2018-09-06T22:19:45.276Z,20.10
2018-09-06T22:22:16.332Z,20.00
2018-09-06T22:24:47.529Z,20.00
2018-09-06T22:27:18.497Z,20.00
2018-09-06T22:29:49.427Z,19.90
2018-09-06T22:32:20.289Z,19.90
2018-09-06T22:34:51.168Z,19.90
2018-09-06T22:37:22.337Z,19.90
2018-09-06T22:39:53.393Z,19.90
2018-09-06T22:42:24.411Z,19.80
2018-09-06T22:44:56.240Z,19.80
2018-09-06T22:47:27.863Z,19.90
2018-09-06T22:49:58.754Z,19.90
2018-09-06T22:52:29.685Z,19.80
2018-09-06T22:55:00.576Z,19.80
2018-09-06T22:57:31.564Z,19.80
2018-09-06T23:00:02.623Z,19.90
2018-09-06T23:02:38.569Z,19.90
2018-09-06T23:05:09.830Z,19.80
2018-09-06T23:07:40.992Z,19.80
2018-09-06T23:10:11.977Z,19.80
2018-09-06T23:12:43.888Z,19.80
2018-09-06T23:15:15.176Z,19.70
2018-09-06T23:17:45.980Z,19.70
2018-09-06T23:20:17.549Z,19.70
2018-09-06T23:22:49.000Z,19.70
2018-09-06T23:25:20.884Z,19.70
2018-09-06T23:27:52.383Z,19.70
2018-09-06T23:30:24.268Z,19.60
2018-09-06T23:32:55.571Z,19.60
2018-09-06T23:35:26.632Z,19.50
2018-09-06T23:37:58.250Z,19.50
2018-09-06T23:40:29.714Z,19.60
2018-09-06T23:43:00.729Z,19.70
2018-09-06T23:45:31.672Z,19.70
2018-09-06T23:48:02.840Z,19.50
2018-09-06T23:50:33.783Z,19.60
2018-09-06T23:53:04.635Z,19.60
2018-09-06T23:55:35.588Z,19.60
2018-09-06T23:58:06.734Z,19.50
